sensor_id;sensor_type;location;lat;lon;timestamp;P1;durP1;ratioP1;P2;durP2;ratioP2
9424;SDS011;17139;52.140;11.636;2022-08-19T00:01:16;14.13;;;13.13;;
9424;SDS011;17139;52.140;11.636;2022-08-19T00:03:44;15.13;;;13.02;;
9424;SDS011;17139;52.140;11.636;2022-08-19T00:06:11;14.35;;;13.05;;
9424;SDS011;17139;52.140;11.636;2022-08-19T00:08:38;13.15;;;12.13;;
9424;SDS011;17139;52.140;11.636;2022-08-19T00:11:05;13.48;;;12.52;;
9424;SDS011;17139;52.140;11.636;2022-08-19T00:13:33;15.30;;;14.05;;
9424;SDS011;17139;52.140;11.636;2022-08-19T00:16:00;13.93;;;13.00;;
9424;SDS011;17139;52.140;11.636;2022-08-19T00:18:29;23.10;;;20.98;;
9424;SDS011;17139;52.140;11.636;2022-08-19T00:20:58;15.80;;;14.48;;
9424;SDS011;17139;52.140;11.636;2022-08-19T00:23:25;15.35;;;13.98;;
9424;SDS011;17139;52.140;11.636;2022-08-19T00:25:53;26.27;;;23.73;;
9424;SDS011;17139;52.140;11.636;2022-08-19T00:28:20;17.77;;;16.48;;
9424;SDS011;17139;52.140;11.636;2022-08-19T00:30:47;17.95;;;16.33;;
9424;SDS011;17139;52.140;11.636;2022-08-19T00:33:14;16.40;;;15.02;;
9424;SDS011;17139;52.140;11.636;2022-08-19T00:35:42;18.88;;;14.90;;
9424;SDS011;17139;52.140;11.636;2022-08-19T00:38:10;17.42;;;16.05;;
9424;SDS011;17139;52.140;11.636;2022-08-19T00:40:37;14.95;;;13.70;;
9424;SDS011;17139;52.140;11.636;2022-08-19T00:43:07;16.73;;;15.27;;
9424;SDS011;17139;52.140;11.636;2022-08-19T00:45:35;16.83;;;15.48;;
9424;SDS011;17139;52.140;11.636;2022-08-19T00:48:03;32.95;;;29.48;;
9424;SDS011;17139;52.140;11.636;2022-08-19T00:50:30;17.92;;;16.30;;
9424;SDS011;17139;52.140;11.636;2022-08-19T00:52:59;18.38;;;16.80;;
9424;SDS011;17139;52.140;11.636;2022-08-19T00:55:29;16.63;;;15.13;;
9424;SDS011;17139;52.140;11.636;2022-08-19T00:58:00;16.10;;;14.95;;
9424;SDS011;17139;52.140;11.636;2022-08-19T01:00:30;15.80;;;14.60;;
9424;SDS011;17139;52.140;11.636;2022-08-19T01:03:01;16.05;;;14.52;;
9424;SDS011;17139;52.140;11.636;2022-08-19T01:05:29;18.35;;;16.58;;
9424;SDS011;17139;52.140;11.636;2022-08-19T01:07:56;17.35;;;15.85;;
9424;SDS011;17139;52.140;11.636;2022-08-19T01:10:29;18.42;;;15.85;;
9424;SDS011;17139;52.140;11.636;2022-08-19T01:12:58;15.00;;;13.57;;
9424;SDS011;17139;52.140;11.636;2022-08-19T01:15:27;17.30;;;15.82;;
9424;SDS011;17139;52.140;11.636;2022-08-19T01:17:57;15.40;;;13.95;;
9424;SDS011;17139;52.140;11.636;2022-08-19T01:20:27;17.15;;;15.63;;
9424;SDS011;17139;52.140;11.636;2022-08-19T01:22:56;16.45;;;14.73;;
9424;SDS011;17139;52.140;11.636;2022-08-19T01:25:26;17.05;;;15.38;;
9424;SDS011;17139;52.140;11.636;2022-08-19T01:27:57;14.93;;;13.70;;
9424;SDS011;17139;52.140;11.636;2022-08-19T01:30:26;15.50;;;14.23;;
9424;SDS011;17139;52.140;11.636;2022-08-19T01:32:55;17.30;;;15.50;;
9424;SDS011;17139;52.140;11.636;2022-08-19T01:35:24;16.25;;;14.95;;
9424;SDS011;17139;52.140;11.636;2022-08-19T01:37:53;15.90;;;14.40;;
9424;SDS011;17139;52.140;11.636;2022-08-19T01:40:24;14.35;;;13.20;;
9424;SDS011;17139;52.140;11.636;2022-08-19T01:42:53;16.60;;;15.38;;
9424;SDS011;17139;52.140;11.636;2022-08-19T01:45:21;22.02;;;20.13;;
9424;SDS011;17139;52.140;11.636;2022-08-19T01:47:50;18.38;;;16.85;;
9424;SDS011;17139;52.140;11.636;2022-08-19T01:50:17;15.88;;;14.65;;
9424;SDS011;17139;52.140;11.636;2022-08-19T01:52:44;15.13;;;13.90;;
9424;SDS011;17139;52.140;11.636;2022-08-19T01:55:13;15.55;;;14.07;;
9424;SDS011;17139;52.140;11.636;2022-08-19T01:57:44;16.10;;;14.95;;
9424;SDS011;17139;52.140;11.636;2022-08-19T02:00:15;16.65;;;14.88;;
9424;SDS011;17139;52.140;11.636;2022-08-19T02:02:45;17.92;;;15.88;;
9424;SDS011;17139;52.140;11.636;2022-08-19T02:05:12;14.00;;;12.88;;
9424;SDS011;17139;52.140;11.636;2022-08-19T02:07:46;15.75;;;14.30;;
9424;SDS011;17139;52.140;11.636;2022-08-19T02:10:14;16.30;;;14.55;;
9424;SDS011;17139;52.140;11.636;2022-08-19T02:12:46;16.08;;;14.77;;
9424;SDS011;17139;52.140;11.636;2022-08-19T02:15:14;23.30;;;21.15;;
9424;SDS011;17139;52.140;11.636;2022-08-19T02:17:41;17.27;;;15.70;;
9424;SDS011;17139;52.140;11.636;2022-08-19T02:20:09;17.08;;;15.68;;
9424;SDS011;17139;52.140;11.636;2022-08-19T02:22:38;22.93;;;20.93;;
9424;SDS011;17139;52.140;11.636;2022-08-19T02:25:08;17.40;;;15.63;;
9424;SDS011;17139;52.140;11.636;2022-08-19T02:27:35;15.65;;;14.23;;
9424;SDS011;17139;52.140;11.636;2022-08-19T02:30:05;16.33;;;14.75;;
9424;SDS011;17139;52.140;11.636;2022-08-19T02:32:33;15.55;;;14.13;;
9424;SDS011;17139;52.140;11.636;2022-08-19T02:35:00;15.57;;;14.30;;
9424;SDS011;17139;52.140;11.636;2022-08-19T02:37:28;15.25;;;14.00;;
9424;SDS011;17139;52.140;11.636;2022-08-19T02:40:12;15.95;;;14.55;;
9424;SDS011;17139;52.140;11.636;2022-08-19T02:42:40;15.23;;;13.93;;
9424;SDS011;17139;52.140;11.636;2022-08-19T02:45:09;22.48;;;20.42;;
9424;SDS011;17139;52.140;11.636;2022-08-19T02:47:36;17.17;;;15.93;;
9424;SDS011;17139;52.140;11.636;2022-08-19T02:50:03;15.48;;;13.98;;
9424;SDS011;17139;52.140;11.636;2022-08-19T02:52:31;21.05;;;19.05;;
9424;SDS011;17139;52.140;11.636;2022-08-19T02:54:59;16.02;;;14.70;;
9424;SDS011;17139;52.140;11.636;2022-08-19T02:57:26;15.52;;;14.10;;
9424;SDS011;17139;52.140;11.636;2022-08-19T02:59:54;15.85;;;14.38;;
9424;SDS011;17139;52.140;11.636;2022-08-19T03:02:22;15.35;;;13.98;;
9424;SDS011;17139;52.140;11.636;2022-08-19T03:04:49;14.68;;;13.40;;
9424;SDS011;17139;52.140;11.636;2022-08-19T03:07:17;14.88;;;13.45;;
9424;SDS011;17139;52.140;11.636;2022-08-19T03:09:44;15.75;;;14.27;;
9424;SDS011;17139;52.140;11.636;2022-08-19T03:12:11;15.75;;;14.07;;
9424;SDS011;17139;52.140;11.636;2022-08-19T03:14:39;14.60;;;13.43;;
9424;SDS011;17139;52.140;11.636;2022-08-19T03:17:06;14.60;;;13.35;;
9424;SDS011;17139;52.140;11.636;2022-08-19T03:19:35;16.55;;;14.80;;
9424;SDS011;17139;52.140;11.636;2022-08-19T03:22:03;16.35;;;14.77;;
9424;SDS011;17139;52.140;11.636;2022-08-19T03:24:30;16.02;;;14.43;;
9424;SDS011;17139;52.140;11.636;2022-08-19T03:26:57;14.98;;;13.48;;
9424;SDS011;17139;52.140;11.636;2022-08-19T03:29:25;15.88;;;14.48;;
9424;SDS011;17139;52.140;11.636;2022-08-19T03:31:53;15.65;;;13.43;;
9424;SDS011;17139;52.140;11.636;2022-08-19T03:34:21;13.18;;;11.25;;
9424;SDS011;17139;52.140;11.636;2022-08-19T03:36:52;18.45;;;15.73;;
9424;SDS011;17139;52.140;11.636;2022-08-19T03:39:20;18.45;;;14.00;;
9424;SDS011;17139;52.140;11.636;2022-08-19T03:41:48;11.15;;;9.07;;
9424;SDS011;17139;52.140;11.636;2022-08-19T03:44:18;17.88;;;16.17;;
9424;SDS011;17139;52.140;11.636;2022-08-19T03:46:47;26.63;;;23.90;;
9424;SDS011;17139;52.140;11.636;2022-08-19T03:49:15;19.17;;;17.23;;
9424;SDS011;17139;52.140;11.636;2022-08-19T03:51:43;19.58;;;17.80;;
9424;SDS011;17139;52.140;11.636;2022-08-19T03:54:13;31.08;;;23.15;;
9424;SDS011;17139;52.140;11.636;2022-08-19T03:56:42;18.20;;;16.30;;
9424;SDS011;17139;52.140;11.636;2022-08-19T03:59:10;16.98;;;15.25;;
9424;SDS011;17139;52.140;11.636;2022-08-19T04:01:39;18.23;;;16.35;;
9424;SDS011;17139;52.140;11.636;2022-08-19T04:04:06;16.88;;;15.35;;
9424;SDS011;17139;52.140;11.636;2022-08-19T04:06:34;18.75;;;16.88;;
9424;SDS011;17139;52.140;11.636;2022-08-19T04:09:02;18.95;;;16.92;;
9424;SDS011;17139;52.140;11.636;2022-08-19T04:11:33;18.88;;;17.10;;
9424;SDS011;17139;52.140;11.636;2022-08-19T04:14:05;16.63;;;15.02;;
9424;SDS011;17139;52.140;11.636;2022-08-19T04:16:33;19.08;;;15.75;;
9424;SDS011;17139;52.140;11.636;2022-08-19T04:19:00;18.50;;;16.65;;
9424;SDS011;17139;52.140;11.636;2022-08-19T04:21:28;16.45;;;15.07;;
9424;SDS011;17139;52.140;11.636;2022-08-19T04:23:56;22.37;;;18.83;;
9424;SDS011;17139;52.140;11.636;2022-08-19T04:26:25;12.65;;;11.32;;
9424;SDS011;17139;52.140;11.636;2022-08-19T04:28:58;19.05;;;13.90;;
9424;SDS011;17139;52.140;11.636;2022-08-19T04:31:30;18.58;;;16.15;;
9424;SDS011;17139;52.140;11.636;2022-08-19T04:34:00;17.95;;;16.30;;
9424;SDS011;17139;52.140;11.636;2022-08-19T04:36:30;17.20;;;15.43;;
9424;SDS011;17139;52.140;11.636;2022-08-19T04:38:59;15.68;;;14.23;;
9424;SDS011;17139;52.140;11.636;2022-08-19T04:41:29;17.77;;;15.93;;
9424;SDS011;17139;52.140;11.636;2022-08-19T04:44:15;18.00;;;16.33;;
9424;SDS011;17139;52.140;11.636;2022-08-19T04:46:43;16.08;;;14.48;;
9424;SDS011;17139;52.140;11.636;2022-08-19T04:49:12;17.60;;;14.40;;
9424;SDS011;17139;52.140;11.636;2022-08-19T04:51:39;18.42;;;15.30;;
9424;SDS011;17139;52.140;11.636;2022-08-19T04:54:08;20.67;;;15.18;;
9424;SDS011;17139;52.140;11.636;2022-08-19T04:56:35;10.88;;;9.77;;
9424;SDS011;17139;52.140;11.636;2022-08-19T04:59:02;16.75;;;14.60;;
9424;SDS011;17139;52.140;11.636;2022-08-19T05:01:31;17.05;;;15.55;;
9424;SDS011;17139;52.140;11.636;2022-08-19T05:04:00;15.52;;;14.20;;
9424;SDS011;17139;52.140;11.636;2022-08-19T05:06:30;18.52;;;16.40;;
9424;SDS011;17139;52.140;11.636;2022-08-19T05:08:59;16.70;;;15.30;;
9424;SDS011;17139;52.140;11.636;2022-08-19T05:11:27;23.13;;;20.83;;
9424;SDS011;17139;52.140;11.636;2022-08-19T05:13:55;16.20;;;14.70;;
9424;SDS011;17139;52.140;11.636;2022-08-19T05:16:24;21.17;;;19.08;;
9424;SDS011;17139;52.140;11.636;2022-08-19T05:18:53;17.55;;;14.95;;
9424;SDS011;17139;52.140;11.636;2022-08-19T05:21:39;16.48;;;14.45;;
9424;SDS011;17139;52.140;11.636;2022-08-19T05:24:25;20.70;;;18.52;;
9424;SDS011;17139;52.140;11.636;2022-08-19T05:26:53;17.05;;;15.38;;
9424;SDS011;17139;52.140;11.636;2022-08-19T05:29:23;17.73;;;13.65;;
9424;SDS011;17139;52.140;11.636;2022-08-19T05:31:53;16.48;;;13.80;;
9424;SDS011;17139;52.140;11.636;2022-08-19T05:34:23;15.73;;;14.13;;
9424;SDS011;17139;52.140;11.636;2022-08-19T05:36:53;15.13;;;13.35;;
9424;SDS011;17139;52.140;11.636;2022-08-19T05:39:23;16.00;;;14.40;;
9424;SDS011;17139;52.140;11.636;2022-08-19T05:41:53;14.52;;;13.15;;
9424;SDS011;17139;52.140;11.636;2022-08-19T05:44:27;13.52;;;12.23;;
9424;SDS011;17139;52.140;11.636;2022-08-19T05:46:56;18.65;;;16.77;;
9424;SDS011;17139;52.140;11.636;2022-08-19T05:49:26;16.35;;;13.50;;
9424;SDS011;17139;52.140;11.636;2022-08-19T05:51:54;14.23;;;12.82;;
9424;SDS011;17139;52.140;11.636;2022-08-19T05:54:21;19.63;;;17.35;;
9424;SDS011;17139;52.140;11.636;2022-08-19T05:56:49;14.23;;;13.20;;
9424;SDS011;17139;52.140;11.636;2022-08-19T05:59:17;13.05;;;12.02;;
9424;SDS011;17139;52.140;11.636;2022-08-19T06:01:47;16.20;;;14.73;;
9424;SDS011;17139;52.140;11.636;2022-08-19T06:04:16;16.25;;;14.75;;
9424;SDS011;17139;52.140;11.636;2022-08-19T06:06:46;13.27;;;12.20;;
9424;SDS011;17139;52.140;11.636;2022-08-19T06:09:14;13.90;;;12.63;;
9424;SDS011;17139;52.140;11.636;2022-08-19T06:11:42;14.07;;;12.77;;
9424;SDS011;17139;52.140;11.636;2022-08-19T06:14:11;10.00;;;9.00;;
9424;SDS011;17139;52.140;11.636;2022-08-19T06:16:40;18.90;;;16.42;;
9424;SDS011;17139;52.140;11.636;2022-08-19T06:19:08;13.35;;;12.23;;
9424;SDS011;17139;52.140;11.636;2022-08-19T06:21:38;15.18;;;11.68;;
9424;SDS011;17139;52.140;11.636;2022-08-19T06:24:08;15.60;;;11.90;;
9424;SDS011;17139;52.140;11.636;2022-08-19T06:26:39;23.23;;;19.00;;
9424;SDS011;17139;52.140;11.636;2022-08-19T06:29:08;15.98;;;14.32;;
9424;SDS011;17139;52.140;11.636;2022-08-19T06:31:37;16.23;;;14.35;;
9424;SDS011;17139;52.140;11.636;2022-08-19T06:34:08;19.88;;;17.90;;
9424;SDS011;17139;52.140;11.636;2022-08-19T06:36:37;16.17;;;14.45;;
9424;SDS011;17139;52.140;11.636;2022-08-19T06:39:09;14.02;;;12.73;;
9424;SDS011;17139;52.140;11.636;2022-08-19T06:41:39;16.15;;;13.63;;
9424;SDS011;17139;52.140;11.636;2022-08-19T06:44:09;19.27;;;15.65;;
9424;SDS011;17139;52.140;11.636;2022-08-19T06:46:36;16.20;;;14.52;;
9424;SDS011;17139;52.140;11.636;2022-08-19T06:49:04;18.08;;;14.60;;
9424;SDS011;17139;52.140;11.636;2022-08-19T06:51:36;25.40;;;20.60;;
9424;SDS011;17139;52.140;11.636;2022-08-19T06:54:04;18.40;;;16.55;;
9424;SDS011;17139;52.140;11.636;2022-08-19T06:56:32;18.42;;;15.63;;
9424;SDS011;17139;52.140;11.636;2022-08-19T06:58:59;17.48;;;14.88;;
9424;SDS011;17139;52.140;11.636;2022-08-19T07:01:27;18.88;;;16.33;;
9424;SDS011;17139;52.140;11.636;2022-08-19T07:03:54;17.50;;;15.57;;
9424;SDS011;17139;52.140;11.636;2022-08-19T07:06:22;16.45;;;13.25;;
9424;SDS011;17139;52.140;11.636;2022-08-19T07:08:49;17.70;;;14.98;;
9424;SDS011;17139;52.140;11.636;2022-08-19T07:11:17;25.13;;;22.47;;
9424;SDS011;17139;52.140;11.636;2022-08-19T07:13:46;19.67;;;17.67;;
9424;SDS011;17139;52.140;11.636;2022-08-19T07:16:15;18.73;;;16.83;;
9424;SDS011;17139;52.140;11.636;2022-08-19T07:18:45;22.77;;;18.63;;
9424;SDS011;17139;52.140;11.636;2022-08-19T07:21:14;22.15;;;19.10;;
9424;SDS011;17139;52.140;11.636;2022-08-19T07:23:44;25.95;;;18.65;;
9424;SDS011;17139;52.140;11.636;2022-08-19T07:26:12;21.60;;;19.13;;
9424;SDS011;17139;52.140;11.636;2022-08-19T07:28:41;22.17;;;19.38;;
9424;SDS011;17139;52.140;11.636;2022-08-19T07:31:11;21.58;;;19.05;;
9424;SDS011;17139;52.140;11.636;2022-08-19T07:33:39;18.63;;;16.48;;
9424;SDS011;17139;52.140;11.636;2022-08-19T07:36:08;19.83;;;17.80;;
9424;SDS011;17139;52.140;11.636;2022-08-19T07:38:37;21.42;;;19.05;;
9424;SDS011;17139;52.140;11.636;2022-08-19T07:41:06;31.80;;;26.27;;
9424;SDS011;17139;52.140;11.636;2022-08-19T07:43:33;22.15;;;19.95;;
9424;SDS011;17139;52.140;11.636;2022-08-19T07:46:00;26.10;;;20.67;;
9424;SDS011;17139;52.140;11.636;2022-08-19T07:48:28;26.63;;;22.88;;
9424;SDS011;17139;52.140;11.636;2022-08-19T07:50:57;21.77;;;19.60;;
9424;SDS011;17139;52.140;11.636;2022-08-19T07:53:29;21.15;;;19.15;;
9424;SDS011;17139;52.140;11.636;2022-08-19T07:55:57;21.17;;;18.55;;
9424;SDS011;17139;52.140;11.636;2022-08-19T07:58:30;23.15;;;18.67;;
9424;SDS011;17139;52.140;11.636;2022-08-19T08:00:58;22.70;;;20.45;;
9424;SDS011;17139;52.140;11.636;2022-08-19T08:03:26;21.40;;;19.40;;
9424;SDS011;17139;52.140;11.636;2022-08-19T08:06:09;20.30;;;18.40;;
9424;SDS011;17139;52.140;11.636;2022-08-19T08:08:54;19.33;;;17.38;;
9424;SDS011;17139;52.140;11.636;2022-08-19T08:11:46;21.85;;;19.65;;
9424;SDS011;17139;52.140;11.636;2022-08-19T08:14:16;19.60;;;17.40;;
9424;SDS011;17139;52.140;11.636;2022-08-19T08:16:44;22.05;;;19.00;;
9424;SDS011;17139;52.140;11.636;2022-08-19T08:19:12;25.48;;;22.88;;
9424;SDS011;17139;52.140;11.636;2022-08-19T08:21:42;20.17;;;18.15;;
9424;SDS011;17139;52.140;11.636;2022-08-19T08:24:09;18.77;;;16.73;;
9424;SDS011;17139;52.140;11.636;2022-08-19T08:26:37;18.10;;;16.40;;
9424;SDS011;17139;52.140;11.636;2022-08-19T08:29:05;18.48;;;16.63;;
9424;SDS011;17139;52.140;11.636;2022-08-19T08:31:36;20.98;;;15.75;;
9424;SDS011;17139;52.140;11.636;2022-08-19T08:34:03;17.65;;;15.57;;
9424;SDS011;17139;52.140;11.636;2022-08-19T08:36:30;17.42;;;15.63;;
9424;SDS011;17139;52.140;11.636;2022-08-19T08:39:00;18.27;;;15.30;;
9424;SDS011;17139;52.140;11.636;2022-08-19T08:41:28;21.10;;;19.02;;
9424;SDS011;17139;52.140;11.636;2022-08-19T08:44:01;17.20;;;15.48;;
9424;SDS011;17139;52.140;11.636;2022-08-19T08:46:30;16.73;;;14.63;;
9424;SDS011;17139;52.140;11.636;2022-08-19T08:49:05;22.48;;;18.40;;
9424;SDS011;17139;52.140;11.636;2022-08-19T08:51:42;16.75;;;15.00;;
9424;SDS011;17139;52.140;11.636;2022-08-19T08:54:17;16.85;;;15.07;;
9424;SDS011;17139;52.140;11.636;2022-08-19T08:56:46;15.68;;;13.90;;
9424;SDS011;17139;52.140;11.636;2022-08-19T08:59:19;15.30;;;14.00;;
9424;SDS011;17139;52.140;11.636;2022-08-19T09:01:50;15.63;;;14.20;;
9424;SDS011;17139;52.140;11.636;2022-08-19T09:04:17;14.15;;;12.82;;
9424;SDS011;17139;52.140;11.636;2022-08-19T09:06:47;14.33;;;13.03;;
9424;SDS011;17139;52.140;11.636;2022-08-19T09:09:20;13.45;;;12.15;;
9424;SDS011;17139;52.140;11.636;2022-08-19T09:12:00;12.40;;;11.20;;
9424;SDS011;17139;52.140;11.636;2022-08-19T09:14:35;12.03;;;11.13;;
9424;SDS011;17139;52.140;11.636;2022-08-19T09:17:07;12.40;;;11.50;;
9424;SDS011;17139;52.140;11.636;2022-08-19T09:19:34;12.48;;;11.43;;
9424;SDS011;17139;52.140;11.636;2022-08-19T09:22:02;13.57;;;12.20;;
9424;SDS011;17139;52.140;11.636;2022-08-19T09:24:31;11.57;;;10.57;;
9424;SDS011;17139;52.140;11.636;2022-08-19T09:27:00;9.15;;;8.48;;
9424;SDS011;17139;52.140;11.636;2022-08-19T09:29:28;11.38;;;10.48;;
9424;SDS011;17139;52.140;11.636;2022-08-19T09:31:55;11.23;;;10.38;;
9424;SDS011;17139;52.140;11.636;2022-08-19T09:34:22;11.18;;;10.13;;
9424;SDS011;17139;52.140;11.636;2022-08-19T09:36:49;10.85;;;10.05;;
9424;SDS011;17139;52.140;11.636;2022-08-19T09:39:18;15.75;;;10.88;;
9424;SDS011;17139;52.140;11.636;2022-08-19T09:41:47;10.70;;;9.70;;
9424;SDS011;17139;52.140;11.636;2022-08-19T09:44:14;13.17;;;12.07;;
9424;SDS011;17139;52.140;11.636;2022-08-19T09:46:42;11.18;;;10.48;;
9424;SDS011;17139;52.140;11.636;2022-08-19T09:49:12;11.95;;;10.93;;
9424;SDS011;17139;52.140;11.636;2022-08-19T09:51:39;11.93;;;10.77;;
9424;SDS011;17139;52.140;11.636;2022-08-19T09:54:06;11.77;;;10.57;;
9424;SDS011;17139;52.140;11.636;2022-08-19T09:56:33;10.88;;;10.05;;
9424;SDS011;17139;52.140;11.636;2022-08-19T09:59:02;10.65;;;9.73;;
9424;SDS011;17139;52.140;11.636;2022-08-19T10:01:30;11.27;;;10.32;;
9424;SDS011;17139;52.140;11.636;2022-08-19T10:03:58;11.05;;;10.15;;
9424;SDS011;17139;52.140;11.636;2022-08-19T10:06:27;10.60;;;9.63;;
9424;SDS011;17139;52.140;11.636;2022-08-19T10:08:57;11.20;;;10.20;;
9424;SDS011;17139;52.140;11.636;2022-08-19T10:11:25;10.75;;;9.95;;
9424;SDS011;17139;52.140;11.636;2022-08-19T10:13:53;12.68;;;11.60;;
9424;SDS011;17139;52.140;11.636;2022-08-19T10:16:22;11.25;;;10.27;;
9424;SDS011;17139;52.140;11.636;2022-08-19T10:18:50;10.25;;;9.52;;
9424;SDS011;17139;52.140;11.636;2022-08-19T10:21:19;9.55;;;8.65;;
9424;SDS011;17139;52.140;11.636;2022-08-19T10:23:48;10.60;;;9.73;;
9424;SDS011;17139;52.140;11.636;2022-08-19T10:26:19;10.20;;;9.40;;
9424;SDS011;17139;52.140;11.636;2022-08-19T10:28:47;11.98;;;10.93;;
9424;SDS011;17139;52.140;11.636;2022-08-19T10:31:15;12.93;;;11.73;;
9424;SDS011;17139;52.140;11.636;2022-08-19T10:33:46;11.48;;;10.40;;
9424;SDS011;17139;52.140;11.636;2022-08-19T10:36:15;11.20;;;10.25;;
9424;SDS011;17139;52.140;11.636;2022-08-19T10:38:44;11.05;;;10.18;;
9424;SDS011;17139;52.140;11.636;2022-08-19T10:41:13;11.93;;;10.88;;
9424;SDS011;17139;52.140;11.636;2022-08-19T10:43:42;11.73;;;10.85;;
9424;SDS011;17139;52.140;11.636;2022-08-19T10:46:10;7.10;;;6.63;;
9424;SDS011;17139;52.140;11.636;2022-08-19T10:48:39;10.18;;;9.35;;
9424;SDS011;17139;52.140;11.636;2022-08-19T10:51:08;10.48;;;9.55;;
9424;SDS011;17139;52.140;11.636;2022-08-19T10:53:53;10.43;;;9.18;;
9424;SDS011;17139;52.140;11.636;2022-08-19T10:56:21;12.30;;;11.27;;
9424;SDS011;17139;52.140;11.636;2022-08-19T10:59:06;9.70;;;9.02;;
9424;SDS011;17139;52.140;11.636;2022-08-19T11:01:33;11.18;;;10.27;;
9424;SDS011;17139;52.140;11.636;2022-08-19T11:04:01;12.65;;;11.50;;
9424;SDS011;17139;52.140;11.636;2022-08-19T11:06:32;11.95;;;10.90;;
9424;SDS011;17139;52.140;11.636;2022-08-19T11:08:59;10.35;;;9.43;;
9424;SDS011;17139;52.140;11.636;2022-08-19T11:11:26;10.18;;;9.30;;
9424;SDS011;17139;52.140;11.636;2022-08-19T11:13:53;11.40;;;10.10;;
9424;SDS011;17139;52.140;11.636;2022-08-19T11:16:21;10.80;;;9.38;;
9424;SDS011;17139;52.140;11.636;2022-08-19T11:18:51;11.48;;;10.40;;
9424;SDS011;17139;52.140;11.636;2022-08-19T11:21:19;12.38;;;11.15;;
9424;SDS011;17139;52.140;11.636;2022-08-19T11:23:49;13.30;;;10.55;;
9424;SDS011;17139;52.140;11.636;2022-08-19T11:26:18;10.52;;;9.68;;
9424;SDS011;17139;52.140;11.636;2022-08-19T11:28:47;11.85;;;10.88;;
9424;SDS011;17139;52.140;11.636;2022-08-19T11:31:16;9.77;;;9.18;;
9424;SDS011;17139;52.140;11.636;2022-08-19T11:33:45;9.88;;;9.07;;
9424;SDS011;17139;52.140;11.636;2022-08-19T11:36:15;9.88;;;9.23;;
9424;SDS011;17139;52.140;11.636;2022-08-19T11:38:43;10.45;;;9.70;;
9424;SDS011;17139;52.140;11.636;2022-08-19T11:41:14;9.77;;;9.07;;
9424;SDS011;17139;52.140;11.636;2022-08-19T11:43:46;8.90;;;8.40;;
9424;SDS011;17139;52.140;11.636;2022-08-19T11:46:14;9.70;;;9.00;;
9424;SDS011;17139;52.140;11.636;2022-08-19T11:48:42;9.88;;;9.18;;
9424;SDS011;17139;52.140;11.636;2022-08-19T11:51:10;10.48;;;9.75;;
9424;SDS011;17139;52.140;11.636;2022-08-19T11:53:39;10.27;;;9.43;;
9424;SDS011;17139;52.140;11.636;2022-08-19T11:56:07;9.95;;;9.07;;
9424;SDS011;17139;52.140;11.636;2022-08-19T11:58:36;10.23;;;8.55;;
9424;SDS011;17139;52.140;11.636;2022-08-19T12:01:05;9.52;;;8.82;;
9424;SDS011;17139;52.140;11.636;2022-08-19T12:03:32;10.43;;;9.65;;
9424;SDS011;17139;52.140;11.636;2022-08-19T12:06:02;9.10;;;8.40;;
9424;SDS011;17139;52.140;11.636;2022-08-19T12:08:30;9.25;;;8.63;;
9424;SDS011;17139;52.140;11.636;2022-08-19T12:10:57;10.57;;;9.68;;
9424;SDS011;17139;52.140;11.636;2022-08-19T12:13:25;8.75;;;8.13;;
9424;SDS011;17139;52.140;11.636;2022-08-19T12:15:54;8.63;;;8.02;;
9424;SDS011;17139;52.140;11.636;2022-08-19T12:18:21;10.02;;;9.30;;
9424;SDS011;17139;52.140;11.636;2022-08-19T12:20:50;8.35;;;7.85;;
9424;SDS011;17139;52.140;11.636;2022-08-19T12:23:19;8.23;;;7.55;;
9424;SDS011;17139;52.140;11.636;2022-08-19T12:25:47;8.35;;;7.63;;
9424;SDS011;17139;52.140;11.636;2022-08-19T12:28:16;8.32;;;7.80;;
9424;SDS011;17139;52.140;11.636;2022-08-19T12:30:45;8.80;;;8.23;;
9424;SDS011;17139;52.140;11.636;2022-08-19T12:33:13;8.13;;;7.43;;
9424;SDS011;17139;52.140;11.636;2022-08-19T12:35:40;9.05;;;8.40;;
9424;SDS011;17139;52.140;11.636;2022-08-19T12:38:08;8.65;;;8.10;;
9424;SDS011;17139;52.140;11.636;2022-08-19T12:40:36;8.73;;;8.05;;
9424;SDS011;17139;52.140;11.636;2022-08-19T12:43:04;8.77;;;8.10;;
9424;SDS011;17139;52.140;11.636;2022-08-19T12:45:31;9.45;;;8.82;;
9424;SDS011;17139;52.140;11.636;2022-08-19T12:47:58;8.57;;;7.75;;
9424;SDS011;17139;52.140;11.636;2022-08-19T12:50:26;8.35;;;7.80;;
9424;SDS011;17139;52.140;11.636;2022-08-19T12:52:53;8.38;;;7.60;;
9424;SDS011;17139;52.140;11.636;2022-08-19T12:55:20;7.75;;;7.13;;
9424;SDS011;17139;52.140;11.636;2022-08-19T12:57:47;8.90;;;8.48;;
9424;SDS011;17139;52.140;11.636;2022-08-19T13:00:16;8.50;;;8.05;;
9424;SDS011;17139;52.140;11.636;2022-08-19T13:02:46;8.43;;;7.93;;
9424;SDS011;17139;52.140;11.636;2022-08-19T13:05:16;7.82;;;7.47;;
9424;SDS011;17139;52.140;11.636;2022-08-19T13:07:46;7.72;;;7.22;;
9424;SDS011;17139;52.140;11.636;2022-08-19T13:10:15;8.10;;;7.40;;
9424;SDS011;17139;52.140;11.636;2022-08-19T13:12:45;9.77;;;9.07;;
9424;SDS011;17139;52.140;11.636;2022-08-19T13:15:14;8.70;;;8.02;;
9424;SDS011;17139;52.140;11.636;2022-08-19T13:17:45;9.07;;;8.10;;
9424;SDS011;17139;52.140;11.636;2022-08-19T13:20:14;10.38;;;9.35;;
9424;SDS011;17139;52.140;11.636;2022-08-19T13:22:43;9.23;;;8.63;;
9424;SDS011;17139;52.140;11.636;2022-08-19T13:25:12;8.95;;;8.45;;
9424;SDS011;17139;52.140;11.636;2022-08-19T13:27:41;9.48;;;8.85;;
9424;SDS011;17139;52.140;11.636;2022-08-19T13:30:10;8.30;;;7.67;;
9424;SDS011;17139;52.140;11.636;2022-08-19T13:32:56;8.80;;;7.95;;
9424;SDS011;17139;52.140;11.636;2022-08-19T13:35:39;8.60;;;8.02;;
9424;SDS011;17139;52.140;11.636;2022-08-19T13:38:08;7.80;;;7.18;;
9424;SDS011;17139;52.140;11.636;2022-08-19T13:40:38;8.25;;;7.60;;
9424;SDS011;17139;52.140;11.636;2022-08-19T13:43:05;7.32;;;6.65;;
9424;SDS011;17139;52.140;11.636;2022-08-19T13:45:34;7.50;;;7.10;;
9424;SDS011;17139;52.140;11.636;2022-08-19T13:48:01;7.05;;;6.65;;
9424;SDS011;17139;52.140;11.636;2022-08-19T13:50:31;8.07;;;7.25;;
9424;SDS011;17139;52.140;11.636;2022-08-19T13:52:59;7.15;;;6.65;;
9424;SDS011;17139;52.140;11.636;2022-08-19T13:55:28;6.63;;;6.15;;
9424;SDS011;17139;52.140;11.636;2022-08-19T13:57:57;7.40;;;7.00;;
9424;SDS011;17139;52.140;11.636;2022-08-19T14:00:27;6.60;;;6.30;;
9424;SDS011;17139;52.140;11.636;2022-08-19T14:02:56;6.55;;;6.15;;
9424;SDS011;17139;52.140;11.636;2022-08-19T14:05:24;7.72;;;6.85;;
9424;SDS011;17139;52.140;11.636;2022-08-19T14:07:53;6.47;;;5.93;;
9424;SDS011;17139;52.140;11.636;2022-08-19T14:10:20;6.60;;;6.05;;
9424;SDS011;17139;52.140;11.636;2022-08-19T14:12:48;6.45;;;5.95;;
9424;SDS011;17139;52.140;11.636;2022-08-19T14:15:17;7.28;;;6.88;;
9424;SDS011;17139;52.140;11.636;2022-08-19T14:17:44;6.80;;;6.40;;
9424;SDS011;17139;52.140;11.636;2022-08-19T14:20:13;7.05;;;6.40;;
9424;SDS011;17139;52.140;11.636;2022-08-19T14:22:41;7.47;;;6.22;;
9424;SDS011;17139;52.140;11.636;2022-08-19T14:25:10;6.63;;;6.25;;
9424;SDS011;17139;52.140;11.636;2022-08-19T14:27:39;8.20;;;7.68;;
9424;SDS011;17139;52.140;11.636;2022-08-19T14:30:08;7.97;;;7.50;;
9424;SDS011;17139;52.140;11.636;2022-08-19T14:32:38;7.70;;;7.00;;
9424;SDS011;17139;52.140;11.636;2022-08-19T14:35:07;8.43;;;7.82;;
9424;SDS011;17139;52.140;11.636;2022-08-19T14:37:34;7.25;;;6.82;;
9424;SDS011;17139;52.140;11.636;2022-08-19T14:40:02;6.90;;;6.50;;